Latest Weather Observations for Busselton Jetty

IDW60801

Issued at 8:32 am WST Wednesday 10 February 2016 (issued every 30 minutes, with the page automatically refreshed every 10 minutes)

About weather observations | Map of weather stations | Latest weather observations for WA | Other Formats
Station Details ID: 009937 Name: BUSSELTON JETTY Lat: -33.63 Lon: 115.34 Height: 3.0 m
Data from the previous 72 hours. | See also: Recent months at Busselton Jetty
Date/Time
WST
Temp
°C
App
Temp
°C
Dew
Point
Rel
Hum
%
Delta-T
°C
Wind Press
QNH
hPa
Press
MSL
hPa
Rain
since 9 am
mm
Dir
 
Spd
km/h
Gust
km/h
Spd
kts
Gust
kts
10/08:30am - - - - - SE 28 37 15 20 - - -
10/08:00am - - - - - SE 26 33 14 18 - - -
10/07:30am - - - - - SSE 19 22 10 12 - - -
10/07:00am - - - - - S 17 19 9 10 - - -
10/06:30am - - - - - S 15 17 8 9 - - -
10/06:00am - - - - - SSE 17 22 9 12 - - -
10/05:30am - - - - - SSE 17 20 9 11 - - -
10/05:00am - - - - - SSE 15 19 8 10 - - -
10/04:30am - - - - - SSE 15 19 8 10 - - -
10/04:00am - - - - - SSE 17 19 9 10 - - -
10/03:30am - - - - - SSE 17 24 9 13 - - -
10/03:00am - - - - - SSE 17 20 9 11 - - -
10/02:30am - - - - - SSE 17 24 9 13 - - -
10/02:00am - - - - - SSE 19 28 10 15 - - -
10/01:30am - - - - - SSE 22 28 12 15 - - -
10/01:00am - - - - - SSE 20 28 11 15 - - -
10/12:30am - - - - - SSE 20 26 11 14 - - -
10/12:00am - - - - - SSE 20 28 11 15 - - -
 
Date/Time
WST
Temp
°C
App
Temp
°C
Dew
Point
Rel
Hum
%
Delta-T
°C
Wind Press
QNH
hPa
Press
MSL
hPa
Rain
since 9 am
mm
Dir
 
Spd
km/h
Gust
km/h
Spd
kts
Gust
kts
09/11:30pm - - - - - SSE 20 30 11 16 - - -
09/11:00pm - - - - - SSE 19 26 10 14 - - -
09/10:30pm - - - - - S 24 30 13 16 - - -
09/10:00pm - - - - - S 28 33 15 18 - - -
09/09:30pm - - - - - S 26 33 14 18 - - -
09/09:00pm - - - - - SSE 26 33 14 18 - - -
09/08:30pm - - - - - SSE 30 37 16 20 - - -
09/08:00pm - - - - - S 28 37 15 20 - - -
09/07:30pm - - - - - S 30 37 16 20 - - -
09/07:00pm - - - - - S 32 39 17 21 - - -
09/06:30pm - - - - - S 32 35 17 19 - - -
09/06:00pm - - - - - S 32 37 17 20 - - -
09/05:30pm - - - - - S 33 37 18 20 - - -
09/05:00pm - - - - - S 32 35 17 19 - - -
09/04:30pm - - - - - S 28 35 15 19 - - -
09/04:00pm - - - - - NW 9 22 5 12 - - -
09/03:30pm - - - - - NW 13 15 7 8 - - -
09/03:00pm - - - - - NNW 13 13 7 7 - - -
09/02:30pm - - - - - N 15 19 8 10 - - -
09/02:00pm - - - - - N 15 15 8 8 - - -
09/01:30pm - - - - - N 13 15 7 8 - - -
09/01:00pm - - - - - N 15 17 8 9 - - -
09/12:30pm - - - - - N 9 11 5 6 - - -
09/12:00pm - - - - - CALM 0 7 0 4 - - -
09/11:30am - - - - - N 4 7 2 4 - - -
09/11:00am - - - - - SE 4 7 2 4 - - -
09/10:30am - - - - - S 13 15 7 8 - - -
09/10:00am - - - - - S 11 17 6 9 - - -
09/09:30am - - - - - SSE 17 19 9 10 - - -
09/09:00am - - - - - SSE 17 22 9 12 - - -
09/08:30am - - - - - SSE 22 28 12 15 - - -
09/08:00am - - - - - SSE 24 30 13 16 - - -
09/07:30am - - - - - S 26 32 14 17 - - -
09/07:00am - - - - - S 30 33 16 18 - - -
09/06:30am - - - - - S 28 32 15 17 - - -
09/06:00am - - - - - S 26 30 14 16 - - -
09/05:30am - - - - - S 24 28 13 15 - - -
09/05:00am - - - - - S 19 24 10 13 - - -
09/04:30am - - - - - S 17 24 9 13 - - -
09/04:00am - - - - - S 17 20 9 11 - - -
09/03:30am - - - - - S 15 19 8 10 - - -
09/03:00am - - - - - S 13 17 7 9 - - -
09/02:30am - - - - - S 15 17 8 9 - - -
09/02:00am - - - - - S 11 15 6 8 - - -
09/01:30am - - - - - S 13 15 7 8 - - -
09/01:00am - - - - - S 13 15 7 8 - - -
09/12:30am - - - - - S 9 11 5 6 - - -
09/12:00am - - - - - S 11 15 6 8 - - -
 
Date/Time
WST
Temp
°C
App
Temp
°C
Dew
Point
Rel
Hum
%
Delta-T
°C
Wind Press
QNH
hPa
Press
MSL
hPa
Rain
since 9 am
mm
Dir
 
Spd
km/h
Gust
km/h
Spd
kts
Gust
kts
08/11:30pm - - - - - SSW 11 13 6 7 - - -
08/11:00pm - - - - - SW 11 13 6 7 - - -
08/10:30pm - - - - - S 9 9 5 5 - - -
08/10:00pm - - - - - SE 15 17 8 9 - - -
08/09:30pm - - - - - SE 17 19 9 10 - - -
08/09:00pm - - - - - SE 22 28 12 15 - - -
08/08:30pm - - - - - SSE 17 20 9 11 - - -
08/08:00pm - - - - - S 22 26 12 14 - - -
08/07:30pm - - - - - WSW 17 19 9 10 - - -
08/07:00pm - - - - - WNW 26 26 14 14 - - -
08/06:30pm - - - - - WNW 22 24 12 13 - - -
08/06:00pm - - - - - W 20 22 11 12 - - -
08/05:30pm - - - - - W 19 20 10 11 - - -
08/05:00pm - - - - - W 19 20 10 11 - - -
08/04:30pm - - - - - W 22 26 12 14 - - -
08/04:00pm - - - - - W 19 20 10 11 - - -
08/03:30pm - - - - - W 13 15 7 8 - - -
08/03:00pm - - - - - W 9 11 5 6 - - -
08/02:30pm - - - - - NW 7 9 4 5 - - -
08/02:00pm - - - - - NW 7 11 4 6 - - -
08/01:30pm - - - - - NW 7 9 4 5 - - -
08/01:00pm - - - - - NW 13 13 7 7 - - -
08/12:30pm - - - - - N 15 17 8 9 - - -
08/12:00pm - - - - - N 15 17 8 9 - - -
08/11:30am - - - - - N 15 17 8 9 - - -
08/11:00am - - - - - NNE 13 15 7 8 - - -
08/10:30am - - - - - NNE 13 15 7 8 - - -
08/10:00am - - - - - NNE 13 15 7 8 - - -
08/09:30am - - - - - NNE 11 13 6 7 - - -
08/09:00am - - - - - ENE 13 17 7 9 - - -
08/08:30am - - - - - ENE 15 15 8 8 - - -
08/08:00am - - - - - E 20 24 11 13 - - -
08/07:30am - - - - - E 24 30 13 16 - - -
08/07:00am - - - - - E 26 30 14 16 - - -
08/06:30am - - - - - E 22 28 12 15 - - -
08/06:00am - - - - - E 20 24 11 13 - - -
08/05:30am - - - - - E 22 26 12 14 - - -
08/05:00am - - - - - E 24 30 13 16 - - -
08/04:30am - - - - - E 24 30 13 16 - - -
08/04:00am - - - - - E 24 30 13 16 - - -
08/03:30am - - - - - E 28 33 15 18 - - -
08/03:00am - - - - - E 26 32 14 17 - - -
08/02:30am - - - - - E 30 35 16 19 - - -
08/02:00am - - - - - E 26 32 14 17 - - -
08/01:30am - - - - - ESE 30 37 16 20 - - -
08/01:00am - - - - - ESE 22 28 12 15 - - -
08/12:30am - - - - - ESE 20 26 11 14 - - -
08/12:00am - - - - - SE 17 19 9 10 - - -
 
Date/Time
WST
Temp
°C
App
Temp
°C
Dew
Point
Rel
Hum
%
Delta-T
°C
Wind Press
QNH
hPa
Press
MSL
hPa
Rain
since 9 am
mm
Dir
 
Spd
km/h
Gust
km/h
Spd
kts
Gust
kts
07/11:30pm - - - - - SE 17 20 9 11 - - -
07/11:00pm - - - - - SE 17 20 9 11 - - -
07/10:30pm - - - - - SE 19 22 10 12 - - -
07/10:00pm - - - - - SSE 24 30 13 16 - - -
07/09:30pm - - - - - SSE 26 32 14 17 - - -
07/09:00pm - - - - - SSE 20 28 11 15 - - -
07/08:30pm - - - - - S 22 30 12 16 - - -
07/08:00pm - - - - - SSE 24 30 13 16 - - -
07/07:30pm - - - - - S 26 32 14 17 - - -
07/07:00pm - - - - - S 30 33 16 18 - - -
07/06:30pm - - - - - SSW 28 33 15 18 - - -
07/06:00pm - - - - - W 22 26 12 14 - - -
07/05:30pm - - - - - W 22 24 12 13 - - -
07/05:00pm - - - - - W 17 19 9 10 - - -
07/04:30pm - - - - - W 17 17 9 9 - - -
07/04:00pm - - - - - WSW 17 17 9 9 - - -
07/03:30pm - - - - - W 15 17 8 9 - - -
07/03:00pm - - - - - W 17 19 9 10 - - -
07/02:30pm - - - - - WNW 19 19 10 10 - - -
07/02:00pm - - - - - WNW 17 19 9 10 - - -
07/01:30pm - - - - - WNW 17 19 9 10 - - -
07/01:00pm - - - - - N 15 19 8 10 - - -
07/12:30pm - - - - - N 13 17 7 9 - - -
07/12:00pm - - - - - N 7 11 4 6 - - -
07/11:30am - - - - - NNE 7 11 4 6 - - -
07/11:00am - - - - - NNE 11 15 6 8 - - -
07/10:30am - - - - - E 17 20 9 11 - - -
07/10:00am - - - - - E 17 20 9 11 - - -
07/09:30am - - - - - E 17 22 9 12 - - -
07/09:00am - - - - - ESE 19 24 10 13 - - -

Other Formats:

Comma delimited format used in spreadsheet applications
http://www.bom.gov.au/fwo/IDW60801/IDW60801.95602.axf

JavaScript Object Notation format (JSON) in row-major order
http://www.bom.gov.au/fwo/IDW60801/IDW60801.95602.json